Time;durP1;ratioP1;P1;durP2;ratioP2;P2;SDS_P1;SDS_P2;PMS_P1;PMS_P2;Temp;Humidity;BMP_temperature;BMP_pressure;BME280_temperature;BME280_humidity;BME280_pressure;Samples;Min_cycle;Max_cycle;Signal;HPM_P1;HPM_P2
2023/12/05 00:00:47;;;;;;;7.97;5.13;;;5.20;99.90;;;;;;5046176;28;20283;-77
2023/12/05 00:03:13;;;;;;;7.53;4.97;;;5.30;99.90;;;;;;5045988;28;20189;-74
2023/12/05 00:05:38;;;;;;;6.53;4.97;;;5.30;99.90;;;;;;5046814;28;20177;-74
2023/12/05 00:08:04;;;;;;;6.60;5.10;;;5.40;99.90;;;;;;5048408;28;20185;-74
2023/12/05 00:10:30;;;;;;;6.30;4.73;;;5.30;99.90;;;;;;5046762;28;20173;-74
2023/12/05 00:12:56;;;;;;;5.97;4.47;;;5.30;99.90;;;;;;5045303;28;20540;-74
2023/12/05 00:15:21;;;;;;;5.80;4.70;;;5.20;99.90;;;;;;5046653;28;20204;-74
2023/12/05 00:17:47;;;;;;;6.00;4.37;;;5.30;99.90;;;;;;5047356;28;20221;-72
2023/12/05 00:20:13;;;;;;;6.73;4.97;;;5.10;99.90;;;;;;5047571;28;20280;-74
2023/12/05 00:22:38;;;;;;;6.30;4.57;;;5.30;99.90;;;;;;5044903;28;20177;-74
2023/12/05 00:25:04;;;;;;;6.97;4.73;;;5.30;99.90;;;;;;5049694;28;20192;-74
2023/12/05 00:27:30;;;;;;;6.13;4.50;;;5.40;99.90;;;;;;5050358;28;20711;-75
2023/12/05 00:29:56;;;;;;;5.90;4.17;;;5.50;99.90;;;;;;5037553;28;20260;-75
2023/12/05 00:32:22;;;;;;;5.83;4.37;;;5.10;99.90;;;;;;5046611;28;20303;-74
2023/12/05 00:34:48;;;;;;;6.53;4.70;;;5.00;99.90;;;;;;5046445;28;20691;-72
2023/12/05 00:37:14;;;;;;;5.80;4.07;;;5.90;99.90;;;;;;5068384;28;20211;-75
2023/12/05 00:39:39;;;;;;;5.73;4.30;;;5.10;99.90;;;;;;5056915;28;20247;-75
2023/12/05 00:42:05;;;;;;;6.17;4.40;;;5.20;99.90;;;;;;5030721;28;20185;-75
2023/12/05 00:44:31;;;;;;;6.10;3.83;;;5.10;99.90;;;;;;5045380;28;20177;-75
2023/12/05 00:47:00;;;;;;;5.20;4.10;;;5.00;99.90;;;;;;5046401;28;20251;-76
2023/12/05 00:49:25;;;;;;;6.47;4.70;;;5.20;99.90;;;;;;5047559;28;20191;-75
2023/12/05 00:51:51;;;;;;;5.17;4.10;;;5.30;99.90;;;;;;5046712;28;20175;-75
2023/12/05 00:54:17;;;;;;;6.50;4.43;;;5.20;99.90;;;;;;5048269;28;20217;-75
2023/12/05 00:56:43;;;;;;;5.37;4.20;;;5.30;99.90;;;;;;5045573;28;20170;-75
2023/12/05 00:59:09;;;;;;;4.63;3.87;;;5.30;99.90;;;;;;5046138;28;20251;-74
2023/12/05 01:01:34;;;;;;;4.47;3.70;;;5.50;99.90;;;;;;5044801;28;20173;-75
2023/12/05 01:04:00;;;;;;;5.17;3.97;;;5.30;99.90;;;;;;5049278;28;20246;-74
2023/12/05 01:06:25;;;;;;;5.53;4.57;;;5.30;99.90;;;;;;5041975;28;20324;-74
2023/12/05 01:08:51;;;;;;;6.10;4.20;;;5.50;99.90;;;;;;5048814;28;20177;-76
2023/12/05 01:11:17;;;;;;;5.93;4.37;;;5.70;99.90;;;;;;5044481;28;20186;-75
2023/12/05 01:13:46;;;;;;;5.53;4.20;;;5.20;99.90;;;;;;5046078;28;20239;-76
2023/12/05 01:16:12;;;;;;;5.30;4.13;;;5.30;99.90;;;;;;5047345;28;20177;-75
2023/12/05 01:18:37;;;;;;;5.03;4.03;;;5.40;99.90;;;;;;5046325;28;20224;-75
2023/12/05 01:21:03;;;;;;;5.37;3.70;;;5.20;99.90;;;;;;5044878;28;20297;-76
2023/12/05 01:23:29;;;;;;;3.93;3.40;;;5.50;99.90;;;;;;5045357;28;20240;-75
2023/12/05 01:25:55;;;;;;;4.50;3.17;;;5.40;99.90;;;;;;5049042;28;20212;-75
2023/12/05 01:28:20;;;;;;;4.50;3.40;;;5.10;99.90;;;;;;5044453;28;20166;-76
2023/12/05 01:30:46;;;;;;;3.47;2.87;;;5.30;99.90;;;;;;5046001;28;20709;-76
2023/12/05 01:33:12;;;;;;;3.20;2.87;;;5.30;99.90;;;;;;5047480;28;20662;-76
2023/12/05 01:35:37;;;;;;;3.27;2.80;;;5.20;99.90;;;;;;5046345;28;20185;-76
2023/12/05 01:38:03;;;;;;;3.77;2.43;;;5.20;99.90;;;;;;5047548;28;20688;-76
2023/12/05 01:40:29;;;;;;;3.27;2.40;;;5.30;99.90;;;;;;5045372;28;20268;-76
2023/12/05 01:42:54;;;;;;;3.03;2.50;;;5.30;99.90;;;;;;5047864;28;20186;-76
2023/12/05 01:45:20;;;;;;;3.13;2.57;;;5.30;99.90;;;;;;5046037;28;20648;-76
2023/12/05 01:47:48;;;;;;;3.23;2.40;;;5.70;99.90;;;;;;5046691;28;20611;-76
2023/12/05 01:50:21;;;;;;;2.60;2.30;;;5.40;99.90;;;;;;5049431;28;20181;-76
2023/12/05 01:52:51;;;;;;;3.27;2.10;;;5.30;99.90;;;;;;5056016;28;20187;-75
2023/12/05 01:55:17;;;;;;;3.23;2.07;;;5.50;99.90;;;;;;5057058;28;20224;-76
2023/12/05 01:57:45;;;;;;;2.87;2.20;;;5.30;99.90;;;;;;5053811;28;20644;-77
2023/12/05 02:00:11;;;;;;;3.93;1.93;;;5.50;99.90;;;;;;5049512;28;20272;-77
2023/12/05 02:02:38;;;;;;;2.50;1.70;;;5.40;99.90;;;;;;5049534;28;20635;-77
2023/12/05 02:05:05;;;;;;;2.33;1.80;;;5.40;99.90;;;;;;5047736;28;20205;-78
2023/12/05 02:07:32;;;;;;;2.63;1.87;;;5.50;99.90;;;;;;5052159;28;20189;-77
2023/12/05 02:09:58;;;;;;;5.53;1.60;;;5.40;99.90;;;;;;5047462;28;20181;-77
2023/12/05 02:12:23;;;;;;;2.50;1.90;;;5.40;99.90;;;;;;5048141;28;20181;-77
2023/12/05 02:14:49;;;;;;;2.13;1.83;;;5.40;99.90;;;;;;5047349;28;20220;-77
2023/12/05 02:17:28;;;;;;;3.13;2.00;;;5.50;99.90;;;;;;5031306;28;20220;-79
2023/12/05 02:20:14;;;;;;;2.47;1.90;;;4.90;99.90;;;;;;5049105;28;20226;-75
2023/12/05 02:22:48;;;;;;;1.70;1.50;;;5.50;99.90;;;;;;5044505;28;20248;-75
2023/12/05 02:25:39;;;;;;;4.07;1.90;;;5.50;99.90;;;;;;5047440;28;20184;-75
2023/12/05 02:28:05;;;;;;;1.97;1.63;;;5.50;99.90;;;;;;5047249;28;20231;-75
2023/12/05 02:30:31;;;;;;;2.90;1.60;;;5.50;99.90;;;;;;5051523;28;20270;-74
2023/12/05 02:32:57;;;;;;;2.10;1.63;;;5.50;99.90;;;;;;5048090;28;20216;-74
2023/12/05 02:35:23;;;;;;;3.47;1.30;;;7.50;99.90;;;;;;5047830;28;20291;-74
2023/12/05 02:38:05;;;;;;;1.93;1.57;;;6.00;99.90;;;;;;5048581;28;20263;-74
2023/12/05 02:40:50;;;;;;;1.40;1.23;;;5.50;99.90;;;;;;5030628;28;20212;-74
2023/12/05 02:43:24;;;;;;;2.70;1.37;;;5.60;99.90;;;;;;5047064;28;20174;-74
2023/12/05 02:45:52;;;;;;;1.97;1.30;;;5.40;99.90;;;;;;5051331;28;20264;-74
2023/12/05 02:48:18;;;;;;;2.20;1.23;;;5.50;99.90;;;;;;5050272;28;20320;-75
2023/12/05 02:50:45;;;;;;;1.67;1.40;;;5.60;99.90;;;;;;5047833;28;20173;-75
2023/12/05 02:53:11;;;;;;;2.33;1.23;;;5.70;99.90;;;;;;5046209;28;20196;-75
2023/12/05 02:55:38;;;;;;;1.30;1.00;;;5.90;99.90;;;;;;5051164;28;20660;-76
2023/12/05 02:58:04;;;;;;;1.50;1.30;;;5.60;99.90;;;;;;5059417;28;20225;-74
2023/12/05 03:00:30;;;;;;;2.00;1.30;;;5.60;99.90;;;;;;5066131;28;20168;-74
2023/12/05 03:02:55;;;;;;;1.53;1.23;;;5.60;99.90;;;;;;5053790;28;20189;-75
2023/12/05 03:05:21;;;;;;;1.20;0.90;;;5.40;99.90;;;;;;5048069;28;20177;-77
2023/12/05 03:07:46;;;;;;;1.00;0.90;;;5.80;99.90;;;;;;5048769;28;20185;-76
2023/12/05 03:10:12;;;;;;;1.43;1.00;;;5.70;99.90;;;;;;5046819;28;20645;-74
2023/12/05 03:12:38;;;;;;;1.40;1.00;;;5.50;99.90;;;;;;5047772;28;20184;-77
2023/12/05 03:15:04;;;;;;;1.93;1.20;;;5.60;99.90;;;;;;5021363;28;20304;-75
2023/12/05 03:17:30;;;;;;;0.90;0.70;;;5.50;99.90;;;;;;5049204;28;20515;-77
2023/12/05 03:19:55;;;;;;;1.23;1.00;;;5.40;99.90;;;;;;5046413;28;20185;-75
2023/12/05 03:22:21;;;;;;;0.70;0.53;;;5.60;99.90;;;;;;5047577;28;20177;-76
2023/12/05 03:24:46;;;;;;;3.93;0.90;;;5.40;99.90;;;;;;5049947;28;20183;-76
2023/12/05 03:27:12;;;;;;;0.70;0.63;;;5.90;99.90;;;;;;5046980;28;20188;-77
2023/12/05 03:29:38;;;;;;;0.90;0.60;;;5.70;99.90;;;;;;5047358;28;20177;-77
2023/12/05 03:32:04;;;;;;;1.60;0.80;;;5.70;99.90;;;;;;5046338;28;21386;-75
2023/12/05 03:34:30;;;;;;;1.23;0.73;;;5.60;99.90;;;;;;5047404;28;20232;-75
2023/12/05 03:36:56;;;;;;;0.80;0.60;;;;;;;;;;5046240;28;20185;-76
2023/12/05 03:39:21;;;;;;;1.30;0.70;;;5.80;99.90;;;;;;5050159;28;20189;-75
2023/12/05 03:41:47;;;;;;;1.23;0.70;;;5.90;99.90;;;;;;5045673;28;20228;-76
2023/12/05 03:44:13;;;;;;;0.90;0.70;;;5.80;99.90;;;;;;5047116;28;20177;-75
2023/12/05 03:46:39;;;;;;;0.70;0.50;;;5.80;99.90;;;;;;5048380;28;20824;-76
2023/12/05 03:49:04;;;;;;;0.50;0.50;;;5.70;99.90;;;;;;5047637;28;20695;-75
2023/12/05 03:51:30;;;;;;;0.80;0.60;;;5.80;99.90;;;;;;5045939;28;20192;-76
2023/12/05 03:53:56;;;;;;;0.80;0.50;;;5.80;99.90;;;;;;5046860;28;20213;-76
2023/12/05 03:56:22;;;;;;;0.80;0.60;;;5.80;99.90;;;;;;5049566;28;20617;-75
2023/12/05 03:58:49;;;;;;;1.53;0.37;;;;;;;;;;5049680;28;20320;-75
2023/12/05 04:01:15;;;;;;;0.50;0.50;;;5.70;99.90;;;;;;5046970;28;20687;-76
2023/12/05 04:03:42;;;;;;;2.83;0.50;;;6.00;99.90;;;;;;5045414;28;20205;-76
2023/12/05 04:06:08;;;;;;;0.93;0.60;;;5.80;99.90;;;;;;5025485;28;20637;-76
2023/12/05 04:08:33;;;;;;;0.60;0.50;;;5.80;99.90;;;;;;5041417;28;20196;-74
2023/12/05 04:10:59;;;;;;;0.50;0.43;;;5.80;99.90;;;;;;5048630;28;20256;-76
2023/12/05 04:13:24;;;;;;;0.83;0.60;;;5.90;99.90;;;;;;5045121;28;20277;-76
2023/12/05 04:15:50;;;;;;;0.70;0.47;;;5.90;99.90;;;;;;5046668;28;20208;-76
2023/12/05 04:18:16;;;;;;;0.73;0.40;;;;;;;;;;5048852;28;20209;-76
2023/12/05 04:20:42;;;;;;;0.90;0.50;;;5.80;99.90;;;;;;5025439;28;20333;-76
2023/12/05 04:23:07;;;;;;;0.53;0.50;;;5.70;99.90;;;;;;5046181;28;20177;-76
2023/12/05 04:25:33;;;;;;;0.67;0.50;;;5.60;99.90;;;;;;5045829;28;20648;-76
2023/12/05 04:27:58;;;;;;;0.50;0.40;;;5.80;99.90;;;;;;5047012;28;20180;-76
2023/12/05 04:30:24;;;;;;;0.83;0.60;;;5.80;99.90;;;;;;5049024;28;20180;-76
2023/12/05 04:32:50;;;;;;;0.50;0.47;;;5.80;99.90;;;;;;5048637;28;20184;-76
2023/12/05 04:35:16;;;;;;;0.73;0.50;;;5.90;99.90;;;;;;5042754;28;20308;-76
2023/12/05 04:37:42;;;;;;;0.80;0.40;;;6.00;99.90;;;;;;5029716;28;20169;-76
2023/12/05 04:40:09;;;;;;;0.53;0.30;;;5.70;99.90;;;;;;5061880;28;20260;-76
2023/12/05 04:42:34;;;;;;;1.33;0.40;;;5.70;99.90;;;;;;5052278;28;20694;-74
2023/12/05 04:45:00;;;;;;;0.77;0.33;;;5.70;99.90;;;;;;5049146;28;20185;-74
2023/12/05 04:47:26;;;;;;;0.30;0.30;;;;;;;;;;5046379;28;20173;-74
2023/12/05 04:49:52;;;;;;;0.40;0.40;;;5.80;99.90;;;;;;5045033;28;20184;-74
2023/12/05 04:52:17;;;;;;;0.60;0.30;;;5.70;99.90;;;;;;5048639;28;20181;-74
2023/12/05 04:54:43;;;;;;;0.40;0.30;;;5.80;99.90;;;;;;5046168;28;20249;-74
2023/12/05 04:57:09;;;;;;;0.30;0.30;;;5.50;99.90;;;;;;5029633;28;20256;-74
2023/12/05 04:59:34;;;;;;;0.77;0.20;;;6.00;99.90;;;;;;5046143;28;20252;-74
2023/12/05 05:02:00;;;;;;;0.23;0.20;;;;;;;;;;5043632;28;20312;-73
2023/12/05 05:04:26;;;;;;;0.30;0.30;;;5.70;99.90;;;;;;5048736;28;20236;-74
2023/12/05 05:06:52;;;;;;;1.43;0.33;;;5.80;99.90;;;;;;5025555;28;20196;-74
2023/12/05 05:09:18;;;;;;;1.90;0.30;;;6.10;99.90;;;;;;5043934;28;20180;-74
2023/12/05 05:11:43;;;;;;;1.07;0.40;;;5.80;99.90;;;;;;5047602;28;20177;-74
2023/12/05 05:14:09;;;;;;;0.70;0.40;;;;;;;;;;5046305;28;20742;-74
2023/12/05 05:16:35;;;;;;;0.30;0.30;;;5.80;99.90;;;;;;5048199;28;20347;-74
2023/12/05 05:19:01;;;;;;;0.37;0.30;;;6.30;99.90;;;;;;5046205;28;20648;-74
2023/12/05 05:21:26;;;;;;;0.33;0.30;;;5.90;99.90;;;;;;5067569;28;20675;-75
2023/12/05 05:23:52;;;;;;;0.50;0.30;;;6.10;99.90;;;;;;5052121;28;20174;-74
2023/12/05 05:26:18;;;;;;;0.50;0.40;;;5.80;99.90;;;;;;5055509;28;20173;-73
2023/12/05 05:28:44;;;;;;;1.67;0.50;;;;;;;;;;5048824;28;20533;-74
2023/12/05 05:31:09;;;;;;;1.50;0.40;;;6.00;99.90;;;;;;5052735;28;20678;-75
2023/12/05 05:33:35;;;;;;;1.00;0.60;;;5.70;99.90;;;;;;5028865;28;20200;-74
2023/12/05 05:36:01;;;;;;;1.90;1.03;;;5.90;99.90;;;;;;5047738;28;20184;-74
2023/12/05 05:38:28;;;;;;;1.20;1.10;;;5.90;99.90;;;;;;5047982;28;20608;-75
2023/12/05 05:41:03;;;;;;;4.13;1.27;;;5.80;99.90;;;;;;5049441;28;20193;-74
2023/12/05 05:43:29;;;;;;;3.20;1.30;;;5.80;99.90;;;;;;5050928;28;20169;-73
2023/12/05 05:45:54;;;;;;;1.70;1.43;;;5.80;99.90;;;;;;5049520;28;20189;-76
2023/12/05 05:48:20;;;;;;;1.80;1.43;;;5.80;99.90;;;;;;5049974;28;20184;-76
2023/12/05 05:50:46;;;;;;;2.00;1.40;;;5.60;99.90;;;;;;5048777;28;20177;-76
2023/12/05 05:53:11;;;;;;;2.90;1.80;;;5.70;99.90;;;;;;5031414;28;20318;-76
2023/12/05 05:55:37;;;;;;;2.00;1.77;;;6.00;99.90;;;;;;5047843;28;20296;-76
2023/12/05 05:58:03;;;;;;;2.47;1.87;;;6.80;99.90;;;;;;5052033;28;20310;-76
2023/12/05 06:00:28;;;;;;;2.83;1.80;;;5.90;99.90;;;;;;5047501;28;20185;-76
2023/12/05 06:02:54;;;;;;;4.70;1.90;;;5.80;99.90;;;;;;5049261;28;20184;-76
2023/12/05 06:05:19;;;;;;;4.30;2.07;;;5.80;99.90;;;;;;5031519;28;20193;-75
2023/12/05 06:07:45;;;;;;;5.67;3.07;;;5.70;99.90;;;;;;5050312;28;20192;-75
2023/12/05 06:10:11;;;;;;;5.30;3.50;;;5.70;99.90;;;;;;5047269;28;20573;-76
2023/12/05 06:12:36;;;;;;;7.50;3.73;;;5.50;99.90;;;;;;5045695;28;20212;-77
2023/12/05 06:15:02;;;;;;;8.40;3.60;;;5.70;99.90;;;;;;5043833;28;20217;-75
2023/12/05 06:17:28;;;;;;;5.57;3.40;;;6.00;99.90;;;;;;5048070;28;20169;-75
2023/12/05 06:19:53;;;;;;;7.77;4.20;;;5.80;99.90;;;;;;5048859;28;20181;-74
2023/12/05 06:22:19;;;;;;;5.63;3.70;;;5.60;99.90;;;;;;5047320;28;20177;-74
2023/12/05 06:24:45;;;;;;;5.73;4.17;;;5.80;99.90;;;;;;5051471;28;20192;-74
2023/12/05 06:27:11;;;;;;;8.50;4.40;;;5.80;99.90;;;;;;5047185;28;20189;-75
2023/12/05 06:29:37;;;;;;;6.80;4.67;;;5.80;99.90;;;;;;5048770;28;20189;-75
2023/12/05 06:32:02;;;;;;;9.53;4.63;;;5.70;99.90;;;;;;5048879;28;20174;-74
2023/12/05 06:34:28;;;;;;;8.53;5.23;;;5.70;99.90;;;;;;5050096;28;20275;-74
2023/12/05 06:36:54;;;;;;;9.70;5.80;;;5.70;99.90;;;;;;5049965;28;20165;-75
2023/12/05 06:39:19;;;;;;;8.73;5.47;;;5.80;99.90;;;;;;5045182;28;20211;-74
2023/12/05 06:41:46;;;;;;;8.77;5.67;;;5.70;99.90;;;;;;5047659;28;20169;-75
2023/12/05 06:44:12;;;;;;;10.87;6.37;;;5.80;99.90;;;;;;5047753;28;20174;-75
2023/12/05 06:46:37;;;;;;;9.97;6.20;;;5.60;99.90;;;;;;5051600;28;20177;-75
2023/12/05 06:49:03;;;;;;;8.73;6.00;;;5.70;99.90;;;;;;5046714;28;20705;-75
2023/12/05 06:51:29;;;;;;;9.20;5.93;;;5.50;99.90;;;;;;5048490;28;20584;-75
2023/12/05 06:53:54;;;;;;;9.47;6.20;;;5.60;99.90;;;;;;5046720;28;20201;-74
2023/12/05 06:56:20;;;;;;;8.47;5.70;;;5.70;99.90;;;;;;5032944;28;20181;-75
2023/12/05 06:58:46;;;;;;;9.40;5.47;;;5.60;99.90;;;;;;5048148;28;20213;-75
2023/12/05 07:01:12;;;;;;;6.93;4.90;;;;;;;;;;5049795;28;20716;-76
2023/12/05 07:03:38;;;;;;;7.80;5.20;;;5.60;99.90;;;;;;5028592;28;20272;-75
2023/12/05 07:06:05;;;;;;;6.83;4.70;;;4.10;99.90;;;;;;5048094;28;20251;-75
2023/12/05 07:08:31;;;;;;;7.20;4.80;;;5.40;99.90;;;;;;5046205;28;20211;-76
2023/12/05 07:10:56;;;;;;;8.00;4.97;;;5.60;99.90;;;;;;5050344;28;20180;-75
2023/12/05 07:13:22;;;;;;;10.27;5.30;;;5.50;99.90;;;;;;5029855;28;20184;-75
2023/12/05 07:15:48;;;;;;;8.13;5.47;;;5.50;99.90;;;;;;5046305;28;20178;-75
2023/12/05 07:18:13;;;;;;;9.17;5.70;;;5.50;99.90;;;;;;5047959;28;20647;-75
2023/12/05 07:20:39;;;;;;;8.23;5.70;;;5.50;99.90;;;;;;5046575;28;20174;-75
2023/12/05 07:23:05;;;;;;;9.70;5.53;;;5.50;99.90;;;;;;5051115;28;20264;-76
2023/12/05 07:25:30;;;;;;;9.80;6.10;;;5.50;99.90;;;;;;5039899;28;20671;-76
2023/12/05 07:27:56;;;;;;;10.43;5.73;;;5.60;99.90;;;;;;5058389;28;20332;-76
2023/12/05 07:30:22;;;;;;;8.03;5.60;;;5.60;99.90;;;;;;5047755;28;20184;-77
2023/12/05 07:32:48;;;;;;;9.60;6.10;;;5.40;99.90;;;;;;5048589;28;20189;-82
2023/12/05 07:35:14;;;;;;;14.97;6.90;;;5.60;99.90;;;;;;5050602;28;20580;-80
2023/12/05 07:37:39;;;;;;;10.57;7.00;;;5.60;99.90;;;;;;5030968;28;20264;-80
2023/12/05 07:40:06;;;;;;;9.47;6.50;;;5.10;99.90;;;;;;5053306;28;20177;-81
2023/12/05 07:42:32;;;;;;;10.30;5.87;;;5.70;99.90;;;;;;5049738;28;20206;-82
2023/12/05 07:44:58;;;;;;;8.90;6.00;;;;;;;;;;5075250;28;20231;-82
2023/12/05 07:47:24;;;;;;;7.63;5.40;;;5.50;99.90;;;;;;5056396;28;20191;-81
2023/12/05 07:49:50;;;;;;;7.30;4.90;;;5.60;99.90;;;;;;5044655;28;20173;-74
2023/12/05 07:52:16;;;;;;;8.43;5.27;;;7.20;99.90;;;;;;5047087;28;20181;-76
2023/12/05 07:54:41;;;;;;;7.77;5.27;;;7.60;99.90;;;;;;5046823;28;20216;-75
2023/12/05 07:57:07;;;;;;;7.30;4.90;;;5.60;99.90;;;;;;5048364;28;20189;-75
2023/12/05 07:59:33;;;;;;;9.23;5.40;;;5.50;99.90;;;;;;5049661;28;20217;-75
2023/12/05 08:01:59;;;;;;;7.97;5.10;;;5.50;99.90;;;;;;5045195;28;20173;-75
2023/12/05 08:04:25;;;;;;;10.03;5.60;;;;;;;;;;5048671;28;20204;-75
2023/12/05 08:06:50;;;;;;;6.63;4.60;;;5.40;99.90;;;;;;5046640;28;20174;-75
2023/12/05 08:09:16;;;;;;;11.17;6.07;;;5.50;99.90;;;;;;5045725;28;20269;-75
2023/12/05 08:11:42;;;;;;;8.50;5.37;;;5.50;99.90;;;;;;5049836;28;20189;-76
2023/12/05 08:14:08;;;;;;;9.17;4.97;;;5.60;99.90;;;;;;5027046;28;20210;-75
2023/12/05 08:16:34;;;;;;;7.30;5.10;;;5.50;99.90;;;;;;5046587;28;20173;-74
2023/12/05 08:18:59;;;;;;;8.20;4.77;;;5.10;99.90;;;;;;5027790;28;20310;-75
2023/12/05 08:21:25;;;;;;;7.43;4.70;;;;;;;;;;5049373;28;20181;-74
2023/12/05 08:23:51;;;;;;;6.83;4.43;;;5.50;99.90;;;;;;5026985;28;20660;-74
2023/12/05 08:26:17;;;;;;;9.10;4.90;;;5.50;99.90;;;;;;5045917;28;20197;-74
2023/12/05 08:28:43;;;;;;;5.97;4.53;;;5.60;99.90;;;;;;5048348;28;20219;-74
2023/12/05 08:31:08;;;;;;;8.67;5.00;;;5.40;99.90;;;;;;5046227;28;20257;-76
2023/12/05 08:33:34;;;;;;;8.40;4.50;;;5.40;99.90;;;;;;5048397;28;20263;-74
2023/12/05 08:36:01;;;;;;;6.57;4.20;;;5.60;99.90;;;;;;5017174;28;20782;-75
2023/12/05 08:38:26;;;;;;;8.03;4.80;;;5.60;99.90;;;;;;5045869;28;20181;-75
2023/12/05 08:40:52;;;;;;;6.70;4.77;;;5.60;99.90;;;;;;5044534;28;20675;-79
2023/12/05 08:43:18;;;;;;;7.43;4.57;;;5.50;99.90;;;;;;5049393;28;20540;-78
2023/12/05 08:45:43;;;;;;;6.23;4.30;;;5.50;99.90;;;;;;5045238;28;20196;-79
2023/12/05 08:48:09;;;;;;;5.67;4.37;;;5.60;99.90;;;;;;5028302;28;20199;-76
2023/12/05 08:50:36;;;;;;;6.30;4.70;;;5.90;99.90;;;;;;5046913;28;20182;-77
2023/12/05 08:53:02;;;;;;;6.30;4.13;;;5.60;99.90;;;;;;5047753;28;20185;-77
2023/12/05 08:55:28;;;;;;;7.30;4.47;;;5.70;99.90;;;;;;5046100;28;20220;-77
2023/12/05 08:57:54;;;;;;;6.00;4.50;;;5.70;99.90;;;;;;5052436;28;20659;-80
2023/12/05 09:00:19;;;;;;;5.40;4.03;;;5.70;99.90;;;;;;5036470;28;20263;-81
2023/12/05 09:02:46;;;;;;;5.73;4.27;;;5.70;99.90;;;;;;5051808;28;20199;-79
2023/12/05 09:05:12;;;;;;;6.07;4.20;;;5.70;99.90;;;;;;5052424;28;20219;-80
2023/12/05 09:07:38;;;;;;;6.93;4.30;;;5.80;99.90;;;;;;5051011;28;20204;-81
2023/12/05 09:10:04;;;;;;;6.17;4.50;;;5.80;99.90;;;;;;5052769;28;20184;-81
2023/12/05 09:12:30;;;;;;;5.27;4.20;;;5.70;99.90;;;;;;5051987;28;20193;-77
2023/12/05 09:14:56;;;;;;;6.40;4.57;;;5.80;99.90;;;;;;5054776;28;20706;-76
2023/12/05 09:17:21;;;;;;;5.80;4.67;;;5.80;99.90;;;;;;5053681;28;20247;-79
2023/12/05 09:19:48;;;;;;;7.17;4.53;;;5.90;99.90;;;;;;5055328;28;20181;-79
2023/12/05 09:22:14;;;;;;;6.00;4.20;;;5.90;99.90;;;;;;5054344;28;20176;-83
2023/12/05 09:24:40;;;;;;;6.10;4.90;;;5.80;99.90;;;;;;5052318;28;20214;-79
2023/12/05 09:27:05;;;;;;;5.83;4.60;;;5.90;99.90;;;;;;5052139;28;20267;-82
2023/12/05 09:29:31;;;;;;;7.20;5.17;;;6.10;99.90;;;;;;5051635;28;20327;-78
2023/12/05 09:31:57;;;;;;;6.30;4.70;;;;;;;;;;5055335;28;20200;-80
2023/12/05 09:34:23;;;;;;;6.63;4.60;;;;;;;;;;5050898;28;20301;-80
2023/12/05 09:36:49;;;;;;;6.50;5.03;;;;;;;;;;5055438;28;20520;-77
2023/12/05 09:39:15;;;;;;;6.53;4.90;;;;;;;;;;5050483;28;20196;-76
2023/12/05 09:41:46;;;;;;;7.67;4.93;;;5.80;99.90;;;;;;5052271;28;20204;-75
2023/12/05 09:44:12;;;;;;;6.23;4.93;;;6.00;99.90;;;;;;5052212;28;20185;-75
2023/12/05 09:46:41;;;;;;;6.73;4.67;;;6.10;99.90;;;;;;5053916;28;20644;-74
2023/12/05 09:49:09;;;;;;;6.30;4.57;;;6.00;99.90;;;;;;5050811;28;20212;-78
2023/12/05 09:51:35;;;;;;;6.10;4.50;;;6.00;99.90;;;;;;5052402;28;20644;-79
2023/12/05 09:54:01;;;;;;;5.00;4.07;;;6.10;99.90;;;;;;5053125;28;20189;-80
2023/12/05 09:56:28;;;;;;;6.17;4.70;;;6.20;99.90;;;;;;5052204;28;20710;-77
2023/12/05 09:58:54;;;;;;;7.83;4.10;;;6.20;99.90;;;;;;5054623;28;20212;-79
2023/12/05 10:01:22;;;;;;;5.97;3.93;;;6.40;99.90;;;;;;5030684;28;20559;-79
2023/12/05 10:03:54;;;;;;;5.40;4.17;;;6.30;99.90;;;;;;5055966;28;20235;-79
2023/12/05 10:06:20;;;;;;;4.80;3.90;;;6.70;99.90;;;;;;5051866;28;20178;-79
2023/12/05 10:08:50;;;;;;;5.33;3.80;;;6.60;99.90;;;;;;5070324;28;20189;-79
2023/12/05 10:11:17;;;;;;;4.70;3.57;;;6.60;99.90;;;;;;5066241;28;20173;-79
2023/12/05 10:13:44;;;;;;;4.33;3.17;;;6.50;99.90;;;;;;5051819;28;20551;-79
2023/12/05 10:16:10;;;;;;;5.17;3.30;;;6.50;99.90;;;;;;5042460;28;20181;-78
2023/12/05 10:18:37;;;;;;;4.23;3.40;;;6.70;99.90;;;;;;5056164;28;20181;-78
2023/12/05 10:21:03;;;;;;;5.20;3.40;;;6.70;99.90;;;;;;5044274;28;20192;-79
2023/12/05 10:23:29;;;;;;;6.63;3.33;;;6.60;99.90;;;;;;5031241;28;20276;-79
2023/12/05 10:25:55;;;;;;;8.57;3.40;;;6.60;99.90;;;;;;5048264;28;20265;-79
2023/12/05 10:28:20;;;;;;;5.00;3.50;;;6.80;99.90;;;;;;5048802;28;20651;-78
2023/12/05 10:30:46;;;;;;;3.77;3.00;;;6.70;99.90;;;;;;5047465;28;20979;-79
2023/12/05 10:33:14;;;;;;;3.87;2.73;;;6.70;99.90;;;;;;5050203;28;20207;-79
2023/12/05 10:35:44;;;;;;;3.60;2.90;;;6.70;99.90;;;;;;5050687;28;20220;-79
2023/12/05 10:38:11;;;;;;;4.37;2.80;;;6.90;99.90;;;;;;5046241;28;20182;-79
2023/12/05 10:41:06;;;;;;;3.97;3.07;;;6.80;99.90;;;;;;5026103;28;20193;-79
2023/12/05 10:43:32;;;;;;;3.83;2.93;;;;;;;;;;5021258;28;20537;-79
2023/12/05 10:46:03;;;;;;;3.70;2.70;;;6.80;99.90;;;;;;5046196;28;20794;-79
2023/12/05 10:48:30;;;;;;;4.93;3.20;;;6.80;99.90;;;;;;5050324;28;20219;-79
2023/12/05 10:50:56;;;;;;;4.40;2.90;;;7.00;99.90;;;;;;5045870;28;20268;-80
2023/12/05 10:53:22;;;;;;;6.13;3.13;;;6.90;99.90;;;;;;5049312;28;20715;-79
2023/12/05 10:55:48;;;;;;;3.50;2.53;;;6.90;99.90;;;;;;5046394;28;20348;-79
2023/12/05 10:58:16;;;;;;;3.83;2.87;;;7.00;99.90;;;;;;5045249;28;20259;-79
2023/12/05 11:00:43;;;;;;;4.10;2.90;;;7.00;99.90;;;;;;5045477;28;20319;-79
2023/12/05 11:03:12;;;;;;;4.00;2.60;;;7.00;99.90;;;;;;5047364;28;20165;-79
2023/12/05 11:05:38;;;;;;;3.83;2.70;;;7.50;99.90;;;;;;5039526;28;20273;-79
2023/12/05 11:08:06;;;;;;;3.43;2.83;;;7.50;99.90;;;;;;5049903;28;20221;-78
2023/12/05 11:10:32;;;;;;;4.23;2.60;;;7.40;99.90;;;;;;5048172;28;20209;-79
2023/12/05 11:13:01;;;;;;;3.80;2.83;;;7.20;99.90;;;;;;5020284;28;20594;-79
2023/12/05 11:15:34;;;;;;;3.93;2.87;;;7.30;99.90;;;;;;5050910;28;20220;-78
2023/12/05 11:18:18;;;;;;;3.87;2.97;;;7.50;99.90;;;;;;5046424;28;20185;-79
2023/12/05 11:21:18;;;;;;;4.80;2.90;;;7.50;99.90;;;;;;5046141;28;20246;-79
2023/12/05 11:23:44;;;;;;;5.07;2.50;;;;;;;;;;5043251;28;20181;-79
2023/12/05 11:26:37;;;;;;;5.03;2.57;;;7.60;99.90;;;;;;5042102;28;20189;-79
2023/12/05 11:29:34;;;;;;;5.87;3.10;;;7.60;99.90;;;;;;5044595;28;20177;-78
2023/12/05 11:32:22;;;;;;;5.03;3.00;;;7.80;99.90;;;;;;5050167;28;20251;-79
2023/12/05 11:35:08;;;;;;;3.87;2.73;;;7.40;99.90;;;;;;5040769;28;20252;-78
2023/12/05 11:37:58;;;;;;;3.50;2.80;;;7.30;99.90;;;;;;5041303;28;20178;-79
2023/12/05 11:40:24;;;;;;;4.27;2.70;;;7.90;99.90;;;;;;5042224;28;20180;-79
2023/12/05 11:43:07;;;;;;;3.80;2.57;;;8.10;99.90;;;;;;5045849;28;20177;-79
2023/12/05 11:45:36;;;;;;;3.93;3.00;;;8.60;99.90;;;;;;5040440;28;20197;-78
2023/12/05 11:48:02;;;;;;;3.20;2.57;;;8.50;99.90;;;;;;5044997;28;20181;-79
2023/12/05 11:50:43;;;;;;;5.90;3.03;;;8.40;99.90;;;;;;5047233;28;20586;-79
2023/12/05 11:53:13;;;;;;;6.17;2.93;;;8.40;99.90;;;;;;5046427;28;20180;-79
2023/12/05 11:55:43;;;;;;;5.30;3.20;;;8.40;99.90;;;;;;5047259;28;20208;-78
2023/12/05 11:58:44;;;;;;;3.87;2.80;;;8.50;99.90;;;;;;5045958;28;20229;-79
2023/12/05 12:01:14;;;;;;;6.77;2.70;;;8.20;99.90;;;;;;4966269;28;20192;-79
2023/12/05 12:03:44;;;;;;;5.87;2.57;;;8.90;99.90;;;;;;5034559;28;20193;-79
2023/12/05 12:06:10;;;;;;;3.70;2.20;;;9.30;99.90;;;;;;5047131;28;20193;-79
2023/12/05 12:08:35;;;;;;;3.53;2.73;;;9.50;99.90;;;;;;5030521;28;20181;-79
2023/12/05 12:11:01;;;;;;;9.57;5.57;;;9.50;99.90;;;;;;5045416;28;20184;-79
2023/12/05 12:13:27;;;;;;;3.90;2.37;;;9.50;99.90;;;;;;5047478;28;20186;-79
2023/12/05 12:15:54;;;;;;;2.87;2.07;;;9.50;99.90;;;;;;5033066;28;20217;-77
2023/12/05 12:18:26;;;;;;;6.07;1.90;;;9.40;99.90;;;;;;5046495;28;20178;-78
2023/12/05 12:20:52;;;;;;;3.67;2.07;;;9.20;99.90;;;;;;5049201;28;20207;-78
2023/12/05 12:23:19;;;;;;;4.20;2.57;;;9.20;99.90;;;;;;5046046;28;20651;-78
2023/12/05 12:25:54;;;;;;;4.43;2.40;;;8.50;99.90;;;;;;5046723;28;20177;-78
2023/12/05 12:28:33;;;;;;;3.37;2.20;;;8.20;99.90;;;;;;5031439;28;20218;-78
2023/12/05 12:31:00;;;;;;;4.27;1.90;;;8.10;99.90;;;;;;5066121;28;20157;-78
2023/12/05 12:33:41;;;;;;;3.37;1.93;;;7.90;99.90;;;;;;5060277;28;20177;-77
2023/12/05 12:36:08;;;;;;;3.70;1.83;;;7.60;99.90;;;;;;5049547;28;20217;-78
2023/12/05 12:38:36;;;;;;;4.07;2.27;;;7.70;99.90;;;;;;5044138;28;20193;-78
2023/12/05 12:41:02;;;;;;;3.80;2.30;;;7.70;99.90;;;;;;5048642;28;20189;-78
2023/12/05 12:43:29;;;;;;;4.67;1.87;;;7.60;99.90;;;;;;5042695;28;20586;-77
2023/12/05 12:45:55;;;;;;;4.83;2.07;;;7.60;99.90;;;;;;5031066;28;20671;-78
2023/12/05 12:48:21;;;;;;;4.60;2.37;;;7.30;99.90;;;;;;5045390;28;20255;-78
2023/12/05 12:50:47;;;;;;;2.53;1.67;;;7.60;99.90;;;;;;5046600;28;20264;-78
2023/12/05 12:53:13;;;;;;;10.17;2.40;;;7.30;99.90;;;;;;5047855;28;20280;-77
2023/12/05 12:55:39;;;;;;;4.63;2.47;;;7.60;99.90;;;;;;5046242;28;20750;-78
2023/12/05 12:58:05;;;;;;;4.50;2.80;;;7.60;99.90;;;;;;5045596;28;20238;-80
2023/12/05 13:00:36;;;;;;;2.57;1.70;;;7.50;99.90;;;;;;5048411;28;20181;-79
2023/12/05 13:03:02;;;;;;;4.33;2.63;;;7.30;99.90;;;;;;5045122;28;20202;-77